sensor_id;sensor_type;location;lat;lon;timestamp;temperature;humidity
64501;DHT22;50874;24.150;-110.320;2022-08-03T00:01:49;38.80;61.50
64501;DHT22;50874;24.150;-110.320;2022-08-03T00:04:16;38.90;63.40
64501;DHT22;50874;24.150;-110.320;2022-08-03T00:06:42;38.90;61.40
64501;DHT22;50874;24.150;-110.320;2022-08-03T00:09:09;38.80;62.30
64501;DHT22;50874;24.150;-110.320;2022-08-03T00:11:35;38.40;62.50
64501;DHT22;50874;24.150;-110.320;2022-08-03T00:14:03;38.50;67.70
64501;DHT22;50874;24.150;-110.320;2022-08-03T00:16:30;38.10;73.40
64501;DHT22;50874;24.150;-110.320;2022-08-03T00:18:57;37.70;71.50
64501;DHT22;50874;24.150;-110.320;2022-08-03T00:21:23;37.70;74.00
64501;DHT22;50874;24.150;-110.320;2022-08-03T00:23:50;37.70;73.60
64501;DHT22;50874;24.150;-110.320;2022-08-03T00:26:16;37.80;70.20
64501;DHT22;50874;24.150;-110.320;2022-08-03T00:28:43;37.50;70.90
64501;DHT22;50874;24.150;-110.320;2022-08-03T00:31:09;37.20;70.50
64501;DHT22;50874;24.150;-110.320;2022-08-03T00:33:35;37.20;72.10
64501;DHT22;50874;24.150;-110.320;2022-08-03T00:36:02;37.10;74.50
64501;DHT22;50874;24.150;-110.320;2022-08-03T00:38:28;37.00;77.70
64501;DHT22;50874;24.150;-110.320;2022-08-03T00:40:55;36.70;80.70
64501;DHT22;50874;24.150;-110.320;2022-08-03T00:43:24;36.30;82.70
64501;DHT22;50874;24.150;-110.320;2022-08-03T00:45:52;36.20;83.40
64501;DHT22;50874;24.150;-110.320;2022-08-03T00:48:20;36.20;83.50
64501;DHT22;50874;24.150;-110.320;2022-08-03T00:50:46;36.30;82.60
64501;DHT22;50874;24.150;-110.320;2022-08-03T00:53:13;36.40;82.90
64501;DHT22;50874;24.150;-110.320;2022-08-03T00:55:40;36.40;82.20
64501;DHT22;50874;24.150;-110.320;2022-08-03T00:58:08;36.50;81.50
64501;DHT22;50874;24.150;-110.320;2022-08-03T01:00:38;36.40;81.60
64501;DHT22;50874;24.150;-110.320;2022-08-03T01:03:06;36.20;80.20
64501;DHT22;50874;24.150;-110.320;2022-08-03T01:09:08;35.70;80.80
64501;DHT22;50874;24.150;-110.320;2022-08-03T01:11:38;35.70;80.30
64501;DHT22;50874;24.150;-110.320;2022-08-03T01:14:12;35.40;81.50
64501;DHT22;50874;24.150;-110.320;2022-08-03T01:17:00;35.30;81.50
64501;DHT22;50874;24.150;-110.320;2022-08-03T01:22:31;35.00;83.30
64501;DHT22;50874;24.150;-110.320;2022-08-03T01:30:30;34.60;84.40
64501;DHT22;50874;24.150;-110.320;2022-08-03T01:33:11;34.80;84.70
64501;DHT22;50874;24.150;-110.320;2022-08-03T01:35:58;34.80;84.50
64501;DHT22;50874;24.150;-110.320;2022-08-03T01:38:31;34.70;84.80
64501;DHT22;50874;24.150;-110.320;2022-08-03T01:41:05;34.60;84.90
64501;DHT22;50874;24.150;-110.320;2022-08-03T01:43:33;34.50;85.50
64501;DHT22;50874;24.150;-110.320;2022-08-03T01:46:01;34.40;85.60
64501;DHT22;50874;24.150;-110.320;2022-08-03T01:48:28;34.30;86.10
64501;DHT22;50874;24.150;-110.320;2022-08-03T01:50:56;34.20;86.50
64501;DHT22;50874;24.150;-110.320;2022-08-03T01:53:25;34.00;86.60
64501;DHT22;50874;24.150;-110.320;2022-08-03T01:55:53;34.30;86.70
64501;DHT22;50874;24.150;-110.320;2022-08-03T01:58:21;34.30;85.90
64501;DHT22;50874;24.150;-110.320;2022-08-03T02:00:50;34.20;85.60
64501;DHT22;50874;24.150;-110.320;2022-08-03T02:03:17;34.30;85.50
64501;DHT22;50874;24.150;-110.320;2022-08-03T02:05:46;34.40;84.60
64501;DHT22;50874;24.150;-110.320;2022-08-03T02:08:15;34.40;83.40
64501;DHT22;50874;24.150;-110.320;2022-08-03T02:10:44;34.20;79.70
64501;DHT22;50874;24.150;-110.320;2022-08-03T02:13:12;34.20;77.60
64501;DHT22;50874;24.150;-110.320;2022-08-03T02:15:40;33.80;76.20
64501;DHT22;50874;24.150;-110.320;2022-08-03T02:18:09;33.60;76.10
64501;DHT22;50874;24.150;-110.320;2022-08-03T02:20:38;33.40;76.50
64501;DHT22;50874;24.150;-110.320;2022-08-03T02:23:05;33.40;76.80
64501;DHT22;50874;24.150;-110.320;2022-08-03T02:25:40;33.50;76.20
64501;DHT22;50874;24.150;-110.320;2022-08-03T02:28:11;33.50;76.70
64501;DHT22;50874;24.150;-110.320;2022-08-03T02:30:42;33.30;77.30
64501;DHT22;50874;24.150;-110.320;2022-08-03T02:33:15;33.20;77.40
64501;DHT22;50874;24.150;-110.320;2022-08-03T02:35:44;33.10;77.90
64501;DHT22;50874;24.150;-110.320;2022-08-03T02:38:13;33.10;78.00
64501;DHT22;50874;24.150;-110.320;2022-08-03T02:40:41;33.20;78.10
64501;DHT22;50874;24.150;-110.320;2022-08-03T02:43:14;33.20;77.70
64501;DHT22;50874;24.150;-110.320;2022-08-03T02:45:44;33.30;77.60
64501;DHT22;50874;24.150;-110.320;2022-08-03T02:48:16;33.20;77.80
64501;DHT22;50874;24.150;-110.320;2022-08-03T02:50:44;33.20;77.90
64501;DHT22;50874;24.150;-110.320;2022-08-03T02:53:11;33.10;77.60
64501;DHT22;50874;24.150;-110.320;2022-08-03T02:55:39;33.30;78.00
64501;DHT22;50874;24.150;-110.320;2022-08-03T02:58:07;33.30;77.10
64501;DHT22;50874;24.150;-110.320;2022-08-03T03:00:35;33.40;76.80
64501;DHT22;50874;24.150;-110.320;2022-08-03T03:03:03;33.40;76.80
64501;DHT22;50874;24.150;-110.320;2022-08-03T03:05:31;33.50;76.50
64501;DHT22;50874;24.150;-110.320;2022-08-03T03:07:59;33.40;74.40
64501;DHT22;50874;24.150;-110.320;2022-08-03T03:10:26;33.30;74.30
64501;DHT22;50874;24.150;-110.320;2022-08-03T03:12:56;33.40;76.30
64501;DHT22;50874;24.150;-110.320;2022-08-03T03:15:28;33.40;77.50
64501;DHT22;50874;24.150;-110.320;2022-08-03T03:17:57;33.50;79.20
64501;DHT22;50874;24.150;-110.320;2022-08-03T03:20:24;33.40;82.00
64501;DHT22;50874;24.150;-110.320;2022-08-03T03:22:52;33.20;84.20
64501;DHT22;50874;24.150;-110.320;2022-08-03T03:25:19;33.00;85.20
64501;DHT22;50874;24.150;-110.320;2022-08-03T03:27:46;32.80;86.10
64501;DHT22;50874;24.150;-110.320;2022-08-03T03:30:14;32.70;86.60
64501;DHT22;50874;24.150;-110.320;2022-08-03T03:32:40;32.60;87.00
64501;DHT22;50874;24.150;-110.320;2022-08-03T03:35:08;32.40;87.50
64501;DHT22;50874;24.150;-110.320;2022-08-03T03:37:34;32.40;87.90
64501;DHT22;50874;24.150;-110.320;2022-08-03T03:40:01;32.40;88.50
64501;DHT22;50874;24.150;-110.320;2022-08-03T03:42:29;32.20;88.80
64501;DHT22;50874;24.150;-110.320;2022-08-03T03:44:56;32.10;89.60
64501;DHT22;50874;24.150;-110.320;2022-08-03T03:47:22;32.10;89.70
64501;DHT22;50874;24.150;-110.320;2022-08-03T03:49:49;32.00;90.00
64501;DHT22;50874;24.150;-110.320;2022-08-03T03:52:16;32.00;90.10
64501;DHT22;50874;24.150;-110.320;2022-08-03T03:54:43;31.80;90.40
64501;DHT22;50874;24.150;-110.320;2022-08-03T03:57:10;31.80;90.70
64501;DHT22;50874;24.150;-110.320;2022-08-03T03:59:40;31.70;91.00
64501;DHT22;50874;24.150;-110.320;2022-08-03T04:02:08;31.60;91.20
64501;DHT22;50874;24.150;-110.320;2022-08-03T04:04:36;31.60;91.30
64501;DHT22;50874;24.150;-110.320;2022-08-03T04:07:23;31.50;91.60
64501;DHT22;50874;24.150;-110.320;2022-08-03T04:10:22;31.40;91.80
64501;DHT22;50874;24.150;-110.320;2022-08-03T04:13:11;31.30;91.80
64501;DHT22;50874;24.150;-110.320;2022-08-03T04:15:39;31.20;92.10
64501;DHT22;50874;24.150;-110.320;2022-08-03T04:18:10;31.20;92.30
64501;DHT22;50874;24.150;-110.320;2022-08-03T04:20:39;31.10;92.60
64501;DHT22;50874;24.150;-110.320;2022-08-03T04:23:11;31.10;92.80
64501;DHT22;50874;24.150;-110.320;2022-08-03T04:25:39;30.90;93.00
64501;DHT22;50874;24.150;-110.320;2022-08-03T04:28:07;30.80;93.40
64501;DHT22;50874;24.150;-110.320;2022-08-03T04:30:36;30.70;93.60
64501;DHT22;50874;24.150;-110.320;2022-08-03T04:33:05;30.80;93.60
64501;DHT22;50874;24.150;-110.320;2022-08-03T04:35:34;30.80;93.60
64501;DHT22;50874;24.150;-110.320;2022-08-03T04:38:03;30.80;93.50
64501;DHT22;50874;24.150;-110.320;2022-08-03T04:40:36;30.80;93.50
64501;DHT22;50874;24.150;-110.320;2022-08-03T04:43:05;30.80;93.60
64501;DHT22;50874;24.150;-110.320;2022-08-03T04:45:33;30.80;93.80
64501;DHT22;50874;24.150;-110.320;2022-08-03T04:48:00;30.70;94.10
64501;DHT22;50874;24.150;-110.320;2022-08-03T04:50:26;30.60;94.50
64501;DHT22;50874;24.150;-110.320;2022-08-03T04:52:54;30.40;94.70
64501;DHT22;50874;24.150;-110.320;2022-08-03T04:55:31;30.40;94.80
64501;DHT22;50874;24.150;-110.320;2022-08-03T04:57:58;30.40;95.00
64501;DHT22;50874;24.150;-110.320;2022-08-03T05:00:25;30.20;95.40
64501;DHT22;50874;24.150;-110.320;2022-08-03T05:02:52;30.10;95.70
64501;DHT22;50874;24.150;-110.320;2022-08-03T05:05:19;30.10;95.80
64501;DHT22;50874;24.150;-110.320;2022-08-03T05:07:46;30.10;95.90
64501;DHT22;50874;24.150;-110.320;2022-08-03T05:10:12;30.00;96.00
64501;DHT22;50874;24.150;-110.320;2022-08-03T05:12:39;29.90;96.20
64501;DHT22;50874;24.150;-110.320;2022-08-03T05:15:07;29.90;96.30
64501;DHT22;50874;24.150;-110.320;2022-08-03T05:17:33;29.90;96.50
64501;DHT22;50874;24.150;-110.320;2022-08-03T05:20:00;29.80;96.70
64501;DHT22;50874;24.150;-110.320;2022-08-03T05:22:28;29.70;96.90
64501;DHT22;50874;24.150;-110.320;2022-08-03T05:24:55;29.70;97.10
64501;DHT22;50874;24.150;-110.320;2022-08-03T05:27:21;29.60;97.30
64501;DHT22;50874;24.150;-110.320;2022-08-03T05:29:49;29.50;97.50
64501;DHT22;50874;24.150;-110.320;2022-08-03T05:32:16;29.50;97.70
64501;DHT22;50874;24.150;-110.320;2022-08-03T05:34:43;29.40;97.80
64501;DHT22;50874;24.150;-110.320;2022-08-03T05:37:10;29.40;98.00
64501;DHT22;50874;24.150;-110.320;2022-08-03T05:39:37;29.40;98.00
64501;DHT22;50874;24.150;-110.320;2022-08-03T05:42:03;29.40;98.10
64501;DHT22;50874;24.150;-110.320;2022-08-03T05:44:30;29.40;98.10
64501;DHT22;50874;24.150;-110.320;2022-08-03T05:46:57;29.50;98.20
64501;DHT22;50874;24.150;-110.320;2022-08-03T05:49:24;29.40;98.20
64501;DHT22;50874;24.150;-110.320;2022-08-03T05:51:50;29.40;98.40
64501;DHT22;50874;24.150;-110.320;2022-08-03T05:54:17;29.30;98.50
64501;DHT22;50874;24.150;-110.320;2022-08-03T05:56:43;29.20;98.90
64501;DHT22;50874;24.150;-110.320;2022-08-03T05:59:10;29.00;99.20
64501;DHT22;50874;24.150;-110.320;2022-08-03T06:01:36;29.00;99.40
64501;DHT22;50874;24.150;-110.320;2022-08-03T06:04:03;29.00;99.50
64501;DHT22;50874;24.150;-110.320;2022-08-03T06:06:29;28.90;99.60
64501;DHT22;50874;24.150;-110.320;2022-08-03T06:08:56;28.90;99.70
64501;DHT22;50874;24.150;-110.320;2022-08-03T06:11:22;28.90;99.90
64501;DHT22;50874;24.150;-110.320;2022-08-03T06:13:49;28.80;99.90
64501;DHT22;50874;24.150;-110.320;2022-08-03T06:16:16;28.80;99.90
64501;DHT22;50874;24.150;-110.320;2022-08-03T06:18:42;28.80;99.90
64501;DHT22;50874;24.150;-110.320;2022-08-03T06:21:09;28.70;99.90
64501;DHT22;50874;24.150;-110.320;2022-08-03T06:23:35;28.60;99.90
64501;DHT22;50874;24.150;-110.320;2022-08-03T06:26:02;28.50;99.90
64501;DHT22;50874;24.150;-110.320;2022-08-03T06:28:29;28.50;99.90
64501;DHT22;50874;24.150;-110.320;2022-08-03T06:30:55;28.50;99.90
64501;DHT22;50874;24.150;-110.320;2022-08-03T06:33:22;28.50;99.90
64501;DHT22;50874;24.150;-110.320;2022-08-03T06:35:50;28.50;99.90
64501;DHT22;50874;24.150;-110.320;2022-08-03T06:38:16;28.40;99.90
64501;DHT22;50874;24.150;-110.320;2022-08-03T06:40:43;28.40;99.90
64501;DHT22;50874;24.150;-110.320;2022-08-03T06:43:09;28.40;99.90
64501;DHT22;50874;24.150;-110.320;2022-08-03T06:45:36;28.30;99.90
64501;DHT22;50874;24.150;-110.320;2022-08-03T06:48:05;28.30;99.90
64501;DHT22;50874;24.150;-110.320;2022-08-03T06:50:33;28.30;99.90
64501;DHT22;50874;24.150;-110.320;2022-08-03T06:53:00;28.30;99.90
64501;DHT22;50874;24.150;-110.320;2022-08-03T06:55:27;28.30;99.90
64501;DHT22;50874;24.150;-110.320;2022-08-03T06:57:54;28.30;99.90
64501;DHT22;50874;24.150;-110.320;2022-08-03T07:00:21;28.30;99.90
64501;DHT22;50874;24.150;-110.320;2022-08-03T07:02:47;28.20;99.90
64501;DHT22;50874;24.150;-110.320;2022-08-03T07:05:14;28.20;99.90
64501;DHT22;50874;24.150;-110.320;2022-08-03T07:07:41;28.20;99.90
64501;DHT22;50874;24.150;-110.320;2022-08-03T07:10:08;28.20;99.90
64501;DHT22;50874;24.150;-110.320;2022-08-03T07:12:34;28.10;99.90
64501;DHT22;50874;24.150;-110.320;2022-08-03T07:15:02;28.00;99.90
64501;DHT22;50874;24.150;-110.320;2022-08-03T07:17:31;28.00;99.90
64501;DHT22;50874;24.150;-110.320;2022-08-03T07:19:58;28.00;99.90
64501;DHT22;50874;24.150;-110.320;2022-08-03T07:22:25;27.90;99.90
64501;DHT22;50874;24.150;-110.320;2022-08-03T07:24:52;27.80;99.90
64501;DHT22;50874;24.150;-110.320;2022-08-03T07:27:18;27.80;99.90
64501;DHT22;50874;24.150;-110.320;2022-08-03T07:29:45;27.80;99.90
64501;DHT22;50874;24.150;-110.320;2022-08-03T07:32:11;27.70;99.90
64501;DHT22;50874;24.150;-110.320;2022-08-03T07:34:38;27.70;99.90
64501;DHT22;50874;24.150;-110.320;2022-08-03T07:37:04;27.70;99.90
64501;DHT22;50874;24.150;-110.320;2022-08-03T07:39:31;27.70;99.90
64501;DHT22;50874;24.150;-110.320;2022-08-03T07:41:57;27.70;99.90
64501;DHT22;50874;24.150;-110.320;2022-08-03T07:44:23;27.70;99.90
64501;DHT22;50874;24.150;-110.320;2022-08-03T07:46:50;27.60;99.90
64501;DHT22;50874;24.150;-110.320;2022-08-03T07:49:16;27.50;99.90
64501;DHT22;50874;24.150;-110.320;2022-08-03T07:51:43;27.50;99.90
64501;DHT22;50874;24.150;-110.320;2022-08-03T07:54:09;27.40;99.90
64501;DHT22;50874;24.150;-110.320;2022-08-03T07:56:36;27.40;99.90
64501;DHT22;50874;24.150;-110.320;2022-08-03T07:59:03;27.30;99.90
64501;DHT22;50874;24.150;-110.320;2022-08-03T08:01:30;27.30;99.90
64501;DHT22;50874;24.150;-110.320;2022-08-03T08:03:58;27.30;99.90
64501;DHT22;50874;24.150;-110.320;2022-08-03T08:06:25;27.30;99.90
64501;DHT22;50874;24.150;-110.320;2022-08-03T08:08:51;27.30;99.90
64501;DHT22;50874;24.150;-110.320;2022-08-03T08:11:18;27.30;99.90
64501;DHT22;50874;24.150;-110.320;2022-08-03T08:13:47;27.30;99.90
64501;DHT22;50874;24.150;-110.320;2022-08-03T08:16:13;27.20;99.90
64501;DHT22;50874;24.150;-110.320;2022-08-03T08:18:39;27.20;99.90
64501;DHT22;50874;24.150;-110.320;2022-08-03T08:21:06;27.20;99.90
64501;DHT22;50874;24.150;-110.320;2022-08-03T08:23:32;27.20;99.90
64501;DHT22;50874;24.150;-110.320;2022-08-03T08:25:59;27.20;99.90
64501;DHT22;50874;24.150;-110.320;2022-08-03T08:28:25;27.20;99.90
64501;DHT22;50874;24.150;-110.320;2022-08-03T08:30:52;27.20;99.90
64501;DHT22;50874;24.150;-110.320;2022-08-03T08:33:19;27.20;99.90
64501;DHT22;50874;24.150;-110.320;2022-08-03T08:35:45;27.20;99.90
64501;DHT22;50874;24.150;-110.320;2022-08-03T08:38:11;27.20;99.90
64501;DHT22;50874;24.150;-110.320;2022-08-03T08:40:38;27.20;99.90
64501;DHT22;50874;24.150;-110.320;2022-08-03T08:43:04;27.20;99.90
64501;DHT22;50874;24.150;-110.320;2022-08-03T08:45:32;27.20;99.90
64501;DHT22;50874;24.150;-110.320;2022-08-03T08:48:01;27.20;99.90
64501;DHT22;50874;24.150;-110.320;2022-08-03T08:50:28;27.20;99.90
64501;DHT22;50874;24.150;-110.320;2022-08-03T08:52:55;27.20;99.90
64501;DHT22;50874;24.150;-110.320;2022-08-03T08:55:25;27.10;99.90
64501;DHT22;50874;24.150;-110.320;2022-08-03T08:58:05;27.10;99.90
64501;DHT22;50874;24.150;-110.320;2022-08-03T09:00:31;27.10;99.90
64501;DHT22;50874;24.150;-110.320;2022-08-03T09:03:00;27.00;99.90
64501;DHT22;50874;24.150;-110.320;2022-08-03T09:05:27;27.00;99.90
64501;DHT22;50874;24.150;-110.320;2022-08-03T09:07:57;27.00;99.90
64501;DHT22;50874;24.150;-110.320;2022-08-03T09:10:24;27.00;99.90
64501;DHT22;50874;24.150;-110.320;2022-08-03T09:12:51;27.00;99.90
64501;DHT22;50874;24.150;-110.320;2022-08-03T09:15:32;27.00;99.90
64501;DHT22;50874;24.150;-110.320;2022-08-03T09:18:03;27.00;99.90
64501;DHT22;50874;24.150;-110.320;2022-08-03T09:20:32;26.90;99.90
64501;DHT22;50874;24.150;-110.320;2022-08-03T09:23:05;26.90;99.90
64501;DHT22;50874;24.150;-110.320;2022-08-03T09:25:40;26.90;99.90
64501;DHT22;50874;24.150;-110.320;2022-08-03T09:28:15;26.90;99.90
64501;DHT22;50874;24.150;-110.320;2022-08-03T09:30:43;26.90;99.90
64501;DHT22;50874;24.150;-110.320;2022-08-03T09:33:13;26.90;99.90
64501;DHT22;50874;24.150;-110.320;2022-08-03T09:35:47;26.90;99.90
64501;DHT22;50874;24.150;-110.320;2022-08-03T09:38:15;26.90;99.90
64501;DHT22;50874;24.150;-110.320;2022-08-03T09:40:42;26.80;99.90
64501;DHT22;50874;24.150;-110.320;2022-08-03T09:43:09;26.80;99.90
64501;DHT22;50874;24.150;-110.320;2022-08-03T09:45:38;26.80;99.90
64501;DHT22;50874;24.150;-110.320;2022-08-03T09:48:28;26.80;99.90
64501;DHT22;50874;24.150;-110.320;2022-08-03T09:50:57;26.80;99.90
64501;DHT22;50874;24.150;-110.320;2022-08-03T09:53:24;26.80;99.90
64501;DHT22;50874;24.150;-110.320;2022-08-03T09:55:59;26.80;99.90
64501;DHT22;50874;24.150;-110.320;2022-08-03T09:58:28;26.80;99.90
64501;DHT22;50874;24.150;-110.320;2022-08-03T10:01:00;26.70;99.90
64501;DHT22;50874;24.150;-110.320;2022-08-03T10:03:33;26.70;99.90
64501;DHT22;50874;24.150;-110.320;2022-08-03T10:06:21;26.70;99.90
64501;DHT22;50874;24.150;-110.320;2022-08-03T10:09:07;26.70;99.90
64501;DHT22;50874;24.150;-110.320;2022-08-03T10:11:35;26.70;99.90
64501;DHT22;50874;24.150;-110.320;2022-08-03T10:14:03;26.60;99.90
64501;DHT22;50874;24.150;-110.320;2022-08-03T10:16:37;26.60;99.90
64501;DHT22;50874;24.150;-110.320;2022-08-03T10:19:06;26.70;99.90
64501;DHT22;50874;24.150;-110.320;2022-08-03T10:21:38;26.70;99.90
64501;DHT22;50874;24.150;-110.320;2022-08-03T10:24:08;26.60;99.90
64501;DHT22;50874;24.150;-110.320;2022-08-03T10:26:38;26.60;99.90
64501;DHT22;50874;24.150;-110.320;2022-08-03T10:29:11;26.60;99.90
64501;DHT22;50874;24.150;-110.320;2022-08-03T10:31:44;26.60;99.90
64501;DHT22;50874;24.150;-110.320;2022-08-03T10:34:22;26.50;99.90
64501;DHT22;50874;24.150;-110.320;2022-08-03T10:36:51;26.50;99.90
64501;DHT22;50874;24.150;-110.320;2022-08-03T10:39:21;26.50;99.90
64501;DHT22;50874;24.150;-110.320;2022-08-03T10:41:49;26.50;99.90
64501;DHT22;50874;24.150;-110.320;2022-08-03T10:44:22;26.50;99.90
64501;DHT22;50874;24.150;-110.320;2022-08-03T10:46:50;26.40;99.90
64501;DHT22;50874;24.150;-110.320;2022-08-03T10:49:18;26.40;99.90
64501;DHT22;50874;24.150;-110.320;2022-08-03T10:51:46;26.40;99.90
64501;DHT22;50874;24.150;-110.320;2022-08-03T10:54:41;26.40;99.90
64501;DHT22;50874;24.150;-110.320;2022-08-03T10:57:46;26.40;99.90
64501;DHT22;50874;24.150;-110.320;2022-08-03T11:00:18;26.30;99.90
64501;DHT22;50874;24.150;-110.320;2022-08-03T11:03:08;26.30;99.90
64501;DHT22;50874;24.150;-110.320;2022-08-03T11:05:49;26.30;99.90
64501;DHT22;50874;24.150;-110.320;2022-08-03T11:19:45;26.20;99.90
64501;DHT22;50874;24.150;-110.320;2022-08-03T11:22:11;26.30;99.90
64501;DHT22;50874;24.150;-110.320;2022-08-03T11:30:09;26.20;99.90
64501;DHT22;50874;24.150;-110.320;2022-08-03T11:35:16;26.10;99.90
64501;DHT22;50874;24.150;-110.320;2022-08-03T11:40:52;26.10;99.90
64501;DHT22;50874;24.150;-110.320;2022-08-03T11:43:42;26.10;99.90
64501;DHT22;50874;24.150;-110.320;2022-08-03T11:46:14;26.10;99.90
64501;DHT22;50874;24.150;-110.320;2022-08-03T11:48:48;26.20;99.90
64501;DHT22;50874;24.150;-110.320;2022-08-03T11:53:58;26.20;99.90
64501;DHT22;50874;24.150;-110.320;2022-08-03T11:56:26;26.30;99.90
64501;DHT22;50874;24.150;-110.320;2022-08-03T11:58:55;26.30;99.90
64501;DHT22;50874;24.150;-110.320;2022-08-03T12:01:24;26.30;99.90
64501;DHT22;50874;24.150;-110.320;2022-08-03T12:03:51;26.30;99.90
64501;DHT22;50874;24.150;-110.320;2022-08-03T12:06:18;26.40;99.90
64501;DHT22;50874;24.150;-110.320;2022-08-03T12:08:45;26.40;99.90
64501;DHT22;50874;24.150;-110.320;2022-08-03T12:11:14;26.40;99.90
64501;DHT22;50874;24.150;-110.320;2022-08-03T12:13:46;26.40;99.90
64501;DHT22;50874;24.150;-110.320;2022-08-03T12:16:25;26.40;99.90
64501;DHT22;50874;24.150;-110.320;2022-08-03T12:19:00;26.50;99.90
64501;DHT22;50874;24.150;-110.320;2022-08-03T12:21:27;26.50;99.90
64501;DHT22;50874;24.150;-110.320;2022-08-03T12:24:03;26.50;99.90
64501;DHT22;50874;24.150;-110.320;2022-08-03T12:26:42;26.50;99.90
64501;DHT22;50874;24.150;-110.320;2022-08-03T12:29:19;26.60;99.90
64501;DHT22;50874;24.150;-110.320;2022-08-03T12:31:46;26.60;99.90
64501;DHT22;50874;24.150;-110.320;2022-08-03T12:34:13;26.60;99.90
64501;DHT22;50874;24.150;-110.320;2022-08-03T12:36:50;26.60;99.90
64501;DHT22;50874;24.150;-110.320;2022-08-03T12:39:22;26.60;99.90
64501;DHT22;50874;24.150;-110.320;2022-08-03T12:41:53;26.60;99.90
64501;DHT22;50874;24.150;-110.320;2022-08-03T12:44:30;26.60;99.90
64501;DHT22;50874;24.150;-110.320;2022-08-03T12:47:00;26.60;99.90
64501;DHT22;50874;24.150;-110.320;2022-08-03T12:49:26;26.60;99.90
64501;DHT22;50874;24.150;-110.320;2022-08-03T12:51:55;26.60;99.90
64501;DHT22;50874;24.150;-110.320;2022-08-03T12:54:27;26.70;99.90
64501;DHT22;50874;24.150;-110.320;2022-08-03T12:59:24;26.70;99.90
64501;DHT22;50874;24.150;-110.320;2022-08-03T13:01:51;26.70;99.90
64501;DHT22;50874;24.150;-110.320;2022-08-03T13:04:31;26.80;99.90
64501;DHT22;50874;24.150;-110.320;2022-08-03T13:07:00;26.80;99.90
64501;DHT22;50874;24.150;-110.320;2022-08-03T13:09:27;26.90;99.90
64501;DHT22;50874;24.150;-110.320;2022-08-03T13:12:15;26.90;99.90
64501;DHT22;50874;24.150;-110.320;2022-08-03T13:14:43;27.10;99.90
64501;DHT22;50874;24.150;-110.320;2022-08-03T13:17:10;27.20;99.90
64501;DHT22;50874;24.150;-110.320;2022-08-03T13:19:38;27.30;99.90
64501;DHT22;50874;24.150;-110.320;2022-08-03T13:24:42;27.90;99.90
64501;DHT22;50874;24.150;-110.320;2022-08-03T13:27:09;28.20;99.90
64501;DHT22;50874;24.150;-110.320;2022-08-03T13:29:35;28.60;99.90
64501;DHT22;50874;24.150;-110.320;2022-08-03T13:32:03;28.90;99.90
64501;DHT22;50874;24.150;-110.320;2022-08-03T13:34:30;29.20;99.90
64501;DHT22;50874;24.150;-110.320;2022-08-03T13:36:57;29.50;99.90
64501;DHT22;50874;24.150;-110.320;2022-08-03T13:39:23;29.80;99.90
64501;DHT22;50874;24.150;-110.320;2022-08-03T13:41:50;30.00;99.90
64501;DHT22;50874;24.150;-110.320;2022-08-03T13:44:18;30.20;99.80
64501;DHT22;50874;24.150;-110.320;2022-08-03T13:46:45;30.40;99.20
64501;DHT22;50874;24.150;-110.320;2022-08-03T13:49:12;30.60;98.60
64501;DHT22;50874;24.150;-110.320;2022-08-03T13:51:39;30.80;98.40
64501;DHT22;50874;24.150;-110.320;2022-08-03T13:54:06;31.00;97.60
64501;DHT22;50874;24.150;-110.320;2022-08-03T13:56:32;31.20;97.10
64501;DHT22;50874;24.150;-110.320;2022-08-03T13:58:59;31.30;97.00
64501;DHT22;50874;24.150;-110.320;2022-08-03T14:01:25;31.60;96.10
64501;DHT22;50874;24.150;-110.320;2022-08-03T14:03:52;31.80;95.80
64501;DHT22;50874;24.150;-110.320;2022-08-03T14:06:23;32.00;95.10
64501;DHT22;50874;24.150;-110.320;2022-08-03T14:08:50;32.30;94.40
64501;DHT22;50874;24.150;-110.320;2022-08-03T14:11:17;32.20;94.30
64501;DHT22;50874;24.150;-110.320;2022-08-03T14:13:44;32.30;94.10
64501;DHT22;50874;24.150;-110.320;2022-08-03T14:16:10;32.50;93.60
64501;DHT22;50874;24.150;-110.320;2022-08-03T14:18:37;32.60;93.40
64501;DHT22;50874;24.150;-110.320;2022-08-03T14:21:05;32.80;93.20
64501;DHT22;50874;24.150;-110.320;2022-08-03T14:23:32;33.10;92.50
64501;DHT22;50874;24.150;-110.320;2022-08-03T14:25:59;33.40;91.90
64501;DHT22;50874;24.150;-110.320;2022-08-03T14:28:25;33.70;91.50
64501;DHT22;50874;24.150;-110.320;2022-08-03T14:30:53;33.80;91.30
64501;DHT22;50874;24.150;-110.320;2022-08-03T14:33:21;33.70;91.50
64501;DHT22;50874;24.150;-110.320;2022-08-03T14:35:48;33.60;91.70
64501;DHT22;50874;24.150;-110.320;2022-08-03T14:38:15;33.70;91.60
64501;DHT22;50874;24.150;-110.320;2022-08-03T14:40:42;34.20;91.10
64501;DHT22;50874;24.150;-110.320;2022-08-03T14:43:09;34.30;90.60
64501;DHT22;50874;24.150;-110.320;2022-08-03T14:45:35;34.40;90.40
64501;DHT22;50874;24.150;-110.320;2022-08-03T14:48:02;34.60;90.20
64501;DHT22;50874;24.150;-110.320;2022-08-03T14:50:29;34.60;89.80
64501;DHT22;50874;24.150;-110.320;2022-08-03T14:52:56;34.90;88.80
64501;DHT22;50874;24.150;-110.320;2022-08-03T14:55:22;35.00;88.10
64501;DHT22;50874;24.150;-110.320;2022-08-03T14:57:49;35.10;87.80
64501;DHT22;50874;24.150;-110.320;2022-08-03T15:00:16;35.10;87.20
64501;DHT22;50874;24.150;-110.320;2022-08-03T15:02:42;35.40;86.50
64501;DHT22;50874;24.150;-110.320;2022-08-03T15:05:09;35.60;85.80
64501;DHT22;50874;24.150;-110.320;2022-08-03T15:07:38;36.00;85.00
64501;DHT22;50874;24.150;-110.320;2022-08-03T15:10:05;36.20;83.40
64501;DHT22;50874;24.150;-110.320;2022-08-03T15:12:31;36.60;82.50
64501;DHT22;50874;24.150;-110.320;2022-08-03T15:14:57;36.50;81.80
64501;DHT22;50874;24.150;-110.320;2022-08-03T15:17:24;36.80;81.30
64501;DHT22;50874;24.150;-110.320;2022-08-03T15:19:50;36.90;80.30
64501;DHT22;50874;24.150;-110.320;2022-08-03T15:22:17;37.00;79.70
64501;DHT22;50874;24.150;-110.320;2022-08-03T15:24:44;37.40;79.00
64501;DHT22;50874;24.150;-110.320;2022-08-03T15:27:10;37.80;77.50
64501;DHT22;50874;24.150;-110.320;2022-08-03T15:29:37;38.00;76.40
64501;DHT22;50874;24.150;-110.320;2022-08-03T15:32:03;38.30;75.60
64501;DHT22;50874;24.150;-110.320;2022-08-03T15:34:30;38.70;74.90
64501;DHT22;50874;24.150;-110.320;2022-08-03T15:36:56;39.10;72.60
64501;DHT22;50874;24.150;-110.320;2022-08-03T15:39:23;39.20;72.00
64501;DHT22;50874;24.150;-110.320;2022-08-03T15:41:49;39.50;70.40